Terminal Aerodrome Forecast
Issued by NWS Cleveland, OH

Home | Current Version | Previous Version | Graphics & Text | Print | Product List | Glossary On
Versions: 1 2 3 4 5 6 7 8 9 10 11 12 13 14 15
223
FTUS41 KCLE 252334
TAFMFD
TAF
KMFD 252334Z 2600/2624 18006KT P6SM SCT100 BKN250
     FM261000 18008KT P6SM VCSH BKN020 BKN080
     FM261400 20010KT P6SM SCT050=

USA.gov is the U.S. government's official web portal to all federal, state and local government web resources and services.